Time;durP1;ratioP1;P1;durP2;ratioP2;P2;SDS_P1;SDS_P2;PMS_P1;PMS_P2;Temp;Humidity;BMP_temperature;BMP_pressure;BME280_temperature;BME280_humidity;BME280_pressure;Samples;Min_cycle;Max_cycle;Signal;HPM_P1;HPM_P2
2024/01/04 00:01:12;;;;;;;113.38;109.78;;;;;;;;;;5093415;28;20052;-66
2024/01/04 00:03:38;;;;;;;111.47;107.32;;;;;;;;;;5093076;28;20048;-65
2024/01/04 00:06:05;;;;;;;115.13;111.35;;;;;;;;;;5102515;28;20039;-65
2024/01/04 00:08:31;;;;;;;97.63;94.35;;;;;;;;;;5094455;28;20101;-65
2024/01/04 00:10:58;;;;;;;100.53;97.28;;;;;;;;;;5093074;28;20498;-66
2024/01/04 00:13:25;;;;;;;107.43;103.85;;;;;;;;;;5092803;28;20107;-66
2024/01/04 00:15:52;;;;;;;107.18;103.75;;;;;;;;;;5093141;28;20101;-65
2024/01/04 00:18:18;;;;;;;112.35;108.40;;;;;;;;;;5092694;28;20101;-66
2024/01/04 00:20:45;;;;;;;118.85;114.85;;;;;;;;;;5094979;28;20611;-66
2024/01/04 00:23:11;;;;;;;70.10;67.72;;;;;;;;;;5092834;28;20452;-65
2024/01/04 00:25:38;;;;;;;101.82;98.43;;;;;;;;;;5092723;28;20043;-65
2024/01/04 00:28:04;;;;;;;101.38;97.78;;;;;;;;;;5092719;28;20109;-66
2024/01/04 00:30:32;;;;;;;92.00;88.95;;;;;;;;;;5092408;28;20056;-65
2024/01/04 00:32:59;;;;;;;56.42;54.47;;;;;;;;;;5092456;28;20482;-65
2024/01/04 00:35:25;;;;;;;81.13;78.38;;;;;;;;;;5081389;28;20048;-66
2024/01/04 00:37:52;;;;;;;92.97;89.85;;;;;;;;;;5113135;28;20056;-65
2024/01/04 00:40:18;;;;;;;96.28;93.03;;;;;;;;;;5112962;28;20052;-67
2024/01/04 00:42:45;;;;;;;92.80;89.75;;;;;;;;;;5112867;28;20579;-65
2024/01/04 00:45:11;;;;;;;98.45;95.30;;;;;;;;;;5113097;28;20052;-66
2024/01/04 00:47:39;;;;;;;107.03;103.53;;;;;;;;;;5112834;28;20047;-65
2024/01/04 00:50:06;;;;;;;107.60;104.15;;;;;;;;;;5106338;28;20116;-66
2024/01/04 00:52:33;;;;;;;95.38;92.00;;;;;;;;;;5086723;28;20052;-65
2024/01/04 00:54:59;;;;;;;101.07;97.82;;;;;;;;;;5091977;28;20048;-66
2024/01/04 00:57:25;;;;;;;112.95;109.28;;;;;;;;;;5091590;28;20184;-66
2024/01/04 00:59:52;;;;;;;90.20;87.25;;;;;;;;;;5092044;28;20101;-66
2024/01/04 01:02:18;;;;;;;97.20;94.05;;;;;;;;;;5092125;28;20089;-66
2024/01/04 01:04:46;;;;;;;90.93;87.93;;;;;;;;;;5091806;28;20052;-66
2024/01/04 01:07:13;;;;;;;89.45;86.57;;;;;;;;;;5092058;28;20048;-66
2024/01/04 01:09:39;;;;;;;93.22;90.22;;;;;;;;;;5086109;28;20048;-66
2024/01/04 01:12:06;;;;;;;79.72;77.00;;;;;;;;;;5095896;28;20116;-66
2024/01/04 01:14:33;;;;;;;84.18;81.25;;;;;;;;;;5091263;28;20044;-65
2024/01/04 01:16:59;;;;;;;98.15;94.95;;;;;;;;;;5092043;28;20105;-66
2024/01/04 01:19:26;;;;;;;96.25;93.18;;;;;;;;;;5091596;28;20044;-66
2024/01/04 01:21:53;;;;;;;58.22;56.20;;;;;;;;;;5092051;28;20461;-65
2024/01/04 01:24:20;;;;;;;101.97;98.70;;;;;;;;;;5091657;28;20097;-68
2024/01/04 01:26:46;;;;;;;102.45;99.18;;;;;;;;;;5091578;28;20052;-65
2024/01/04 01:29:13;;;;;;;116.90;113.18;;;;;;;;;;5092554;28;20490;-65
2024/01/04 01:31:42;;;;;;;110.22;106.65;;;;;;;;;;5091495;28;20039;-66
2024/01/04 01:34:09;;;;;;;122.47;118.57;;;;;;;;;;5091771;28;20093;-65
2024/01/04 01:36:35;;;;;;;124.97;120.90;;;;;;;;;;5091555;28;20563;-66
2024/01/04 01:39:03;;;;;;;131.65;127.32;;;;;;;;;;5091364;28;20043;-66
2024/01/04 01:41:30;;;;;;;114.90;110.90;;;;;;;;;;5091358;28;20055;-66
2024/01/04 01:43:56;;;;;;;114.60;110.90;;;;;;;;;;5091478;28;20044;-66
2024/01/04 01:46:23;;;;;;;100.97;97.68;;;;;;;;;;5090057;28;20040;-67
2024/01/04 01:48:49;;;;;;;102.65;99.32;;;;;;;;;;5091279;28;20564;-66
2024/01/04 01:51:16;;;;;;;95.30;91.65;;;;;;;;;;5084830;28;20048;-66
2024/01/04 01:53:43;;;;;;;101.38;97.90;;;;;;;;;;5073712;28;20499;-65
2024/01/04 01:56:11;;;;;;;116.72;112.90;;;;;;;;;;5070780;28;20461;-65
2024/01/04 01:58:38;;;;;;;105.10;101.53;;;;;;;;;;5075560;28;20055;-65
2024/01/04 02:01:05;;;;;;;98.88;95.47;;;;;;;;;;5091690;28;20056;-66
2024/01/04 02:03:31;;;;;;;94.93;91.70;;;;;;;;;;5091392;28;20420;-64
2024/01/04 02:05:58;;;;;;;105.55;102.13;;;;;;;;;;5091399;28;20052;-67
2024/01/04 02:08:24;;;;;;;88.45;85.55;;;;;;;;;;5093945;28;20101;-67
2024/01/04 02:10:50;;;;;;;90.95;87.85;;;;;;;;;;5092361;28;20075;-66
2024/01/04 02:13:18;;;;;;;98.35;95.05;;;;;;;;;;5094192;28;20063;-65
2024/01/04 02:15:47;;;;;;;84.97;82.18;;;;;;;;;;5095492;28;20061;-65
2024/01/04 02:18:13;;;;;;;98.30;95.05;;;;;;;;;;5095368;28;20048;-65
2024/01/04 02:20:39;;;;;;;93.05;89.95;;;;;;;;;;5095098;28;20044;-68
2024/01/04 02:23:07;;;;;;;92.38;89.32;;;;;;;;;;5095435;28;20097;-66
2024/01/04 02:25:34;;;;;;;91.95;88.82;;;;;;;;;;5099362;28;20486;-67
2024/01/04 02:28:00;;;;;;;94.47;91.32;;;;;;;;;;5088508;28;20055;-66
2024/01/04 02:30:27;;;;;;;94.78;91.57;;;;;;;;;;5088539;28;20048;-68
2024/01/04 02:32:53;;;;;;;91.75;88.68;;;;;;;;;;5094697;28;20051;-66
2024/01/04 02:35:20;;;;;;;70.22;67.72;;;;;;;;;;5094837;28;20390;-66
2024/01/04 02:37:46;;;;;;;93.85;90.53;;;;;;;;;;5098836;28;20059;-66
2024/01/04 02:40:14;;;;;;;87.68;84.68;;;;;;;;;;5094805;28;20052;-65
2024/01/04 02:42:41;;;;;;;101.45;98.10;;;;;;;;;;5094621;28;20101;-65
2024/01/04 02:45:07;;;;;;;78.93;76.20;;;;;;;;;;5104900;28;20399;-66
2024/01/04 02:47:34;;;;;;;101.15;97.78;;;;;;;;;;5094556;28;20086;-66
2024/01/04 02:50:01;;;;;;;96.10;92.93;;;;;;;;;;5094431;28;20048;-66
2024/01/04 02:52:27;;;;;;;85.82;83.03;;;;;;;;;;5094661;28;20048;-67
2024/01/04 02:54:53;;;;;;;96.57;93.38;;;;;;;;;;5094678;28;20105;-67
2024/01/04 02:57:21;;;;;;;92.88;89.47;;;;;;;;;;5094351;28;20048;-67
2024/01/04 02:59:48;;;;;;;94.55;91.32;;;;;;;;;;5094604;28;20060;-66
2024/01/04 03:02:15;;;;;;;98.88;95.47;;;;;;;;;;5094723;28;20044;-67
2024/01/04 03:04:42;;;;;;;94.53;91.10;;;;;;;;;;5094031;28;20533;-67
2024/01/04 03:07:09;;;;;;;100.45;97.10;;;;;;;;;;5094197;28;20525;-67
2024/01/04 03:09:35;;;;;;;103.85;100.32;;;;;;;;;;5098984;28;20097;-67
2024/01/04 03:12:02;;;;;;;87.20;84.13;;;;;;;;;;5094375;28;20048;-67
2024/01/04 03:14:30;;;;;;;81.07;78.18;;;;;;;;;;5103893;28;20516;-68
2024/01/04 03:16:57;;;;;;;89.00;85.85;;;;;;;;;;5102790;28;20043;-68
2024/01/04 03:19:23;;;;;;;76.32;73.63;;;;;;;;;;5093550;28;20551;-67
2024/01/04 03:21:50;;;;;;;93.43;90.38;;;;;;;;;;5094192;28;20116;-68
2024/01/04 03:24:16;;;;;;;82.72;79.82;;;;;;;;;;5094175;28;20056;-67
2024/01/04 03:26:42;;;;;;;87.35;84.35;;;;;;;;;;5090899;28;20044;-67
2024/01/04 03:29:09;;;;;;;74.45;71.55;;;;;;;;;;5093764;28;20044;-67
2024/01/04 03:31:37;;;;;;;63.70;61.53;;;;;;;;;;5094574;28;20159;-68
2024/01/04 03:34:04;;;;;;;69.72;67.22;;;;;;;;;;5094100;28;20575;-67
2024/01/04 03:36:30;;;;;;;44.10;42.35;;;;;;;;;;5094004;28;20507;-67
2024/01/04 03:38:56;;;;;;;69.97;67.47;;;;;;;;;;5101790;28;20043;-67
2024/01/04 03:41:23;;;;;;;77.47;74.75;;;;;;;;;;5114333;28;20101;-67
2024/01/04 03:43:49;;;;;;;74.60;72.10;;;;;;;;;;5106659;28;20048;-68
2024/01/04 03:46:16;;;;;;;57.58;55.42;;;;;;;;;;5089173;28;20464;-67
2024/01/04 03:48:44;;;;;;;77.20;74.47;;;;;;;;;;5076335;28;20049;-67
2024/01/04 03:51:10;;;;;;;46.13;44.40;;;;;;;;;;5073623;28;20472;-67
2024/01/04 03:53:36;;;;;;;68.53;65.85;;;;;;;;;;5082619;28;20036;-68
2024/01/04 03:56:04;;;;;;;77.07;74.47;;;;;;;;;;5114200;28;20122;-67
2024/01/04 03:58:32;;;;;;;67.20;64.65;;;;;;;;;;5095711;28;20090;-67
2024/01/04 04:00:58;;;;;;;78.63;75.93;;;;;;;;;;5113915;28;20123;-65
2024/01/04 04:03:25;;;;;;;80.05;77.30;;;;;;;;;;5104099;28;20048;-65
2024/01/04 04:05:53;;;;;;;75.57;72.85;;;;;;;;;;5089568;28;20101;-66
2024/01/04 04:08:19;;;;;;;72.82;70.35;;;;;;;;;;5086162;28;20052;-67
2024/01/04 04:10:46;;;;;;;73.28;70.53;;;;;;;;;;5085425;28;20110;-66
2024/01/04 04:13:12;;;;;;;73.07;70.63;;;;;;;;;;5072830;28;20102;-66
2024/01/04 04:15:39;;;;;;;75.15;72.47;;;;;;;;;;5106640;28;20055;-67
2024/01/04 04:18:05;;;;;;;70.38;67.68;;;;;;;;;;5112966;28;20124;-68
2024/01/04 04:20:32;;;;;;;72.53;70.03;;;;;;;;;;5112881;28;20047;-66
2024/01/04 04:23:00;;;;;;;65.53;63.13;;;;;;;;;;5113360;28;20105;-66
2024/01/04 04:25:26;;;;;;;65.53;63.15;;;;;;;;;;5101044;28;20482;-66
2024/01/04 04:27:53;;;;;;;52.90;51.08;;;;;;;;;;5089439;28;20119;-67
2024/01/04 04:30:19;;;;;;;75.85;73.10;;;;;;;;;;5094585;28;20047;-66
2024/01/04 04:32:46;;;;;;;72.93;70.28;;;;;;;;;;5100459;28;20122;-66
2024/01/04 04:35:12;;;;;;;65.80;63.58;;;;;;;;;;5092837;28;20048;-67
2024/01/04 04:37:39;;;;;;;65.82;63.45;;;;;;;;;;5092903;28;20113;-66
2024/01/04 04:40:08;;;;;;;81.00;78.30;;;;;;;;;;5092826;28;20543;-67
2024/01/04 04:42:34;;;;;;;70.82;68.25;;;;;;;;;;5092702;28;20044;-67
2024/01/04 04:45:00;;;;;;;60.92;58.58;;;;;;;;;;5102715;28;20051;-67
2024/01/04 04:47:27;;;;;;;47.40;45.70;;;;;;;;;;5105884;28;20460;-67
2024/01/04 04:49:53;;;;;;;71.72;69.13;;;;;;;;;;5083515;28;20110;-65
2024/01/04 04:52:20;;;;;;;62.58;60.42;;;;;;;;;;5092615;28;20055;-65
2024/01/04 04:54:46;;;;;;;68.47;66.10;;;;;;;;;;5092196;28;20101;-66
2024/01/04 04:57:14;;;;;;;86.00;82.97;;;;;;;;;;5092302;28;20052;-66
2024/01/04 04:59:41;;;;;;;68.68;66.35;;;;;;;;;;5097603;28;20081;-65
2024/01/04 05:02:07;;;;;;;55.53;53.63;;;;;;;;;;5093447;28;20108;-66
2024/01/04 05:04:33;;;;;;;58.35;56.28;;;;;;;;;;5092260;28;20559;-66
2024/01/04 05:07:00;;;;;;;64.57;62.28;;;;;;;;;;5093020;28;20567;-66
2024/01/04 05:09:26;;;;;;;53.97;51.72;;;;;;;;;;5092227;28;20448;-66
2024/01/04 05:11:53;;;;;;;56.08;54.10;;;;;;;;;;5092089;28;20075;-66
2024/01/04 05:14:21;;;;;;;62.90;60.72;;;;;;;;;;5092283;28;20056;-65
2024/01/04 05:16:47;;;;;;;69.57;67.03;;;;;;;;;;5092147;28;20044;-66
2024/01/04 05:19:14;;;;;;;62.35;60.10;;;;;;;;;;5091984;28;20051;-66
2024/01/04 05:21:40;;;;;;;45.38;43.63;;;;;;;;;;5091813;28;20456;-65
2024/01/04 05:24:07;;;;;;;56.65;54.47;;;;;;;;;;5091835;28;20044;-66
2024/01/04 05:26:33;;;;;;;69.43;67.00;;;;;;;;;;5096170;28;20047;-65
2024/01/04 05:29:00;;;;;;;58.97;56.35;;;;;;;;;;5095587;28;20056;-67
2024/01/04 05:31:28;;;;;;;75.35;71.85;;;;;;;;;;5102814;28;20040;-66
2024/01/04 05:33:54;;;;;;;68.18;65.60;;;;;;;;;;5094824;28;20105;-66
2024/01/04 05:36:21;;;;;;;71.13;68.20;;;;;;;;;;5096948;28;20097;-66
2024/01/04 05:38:47;;;;;;;73.85;70.80;;;;;;;;;;5091686;28;20490;-65
2024/01/04 05:41:14;;;;;;;49.15;47.25;;;;;;;;;;5091732;28;20452;-66
2024/01/04 05:43:40;;;;;;;83.05;80.22;;;;;;;;;;5101821;28;20097;-66
2024/01/04 05:46:07;;;;;;;76.60;73.90;;;;;;;;;;5092877;28;20551;-66
2024/01/04 05:48:35;;;;;;;86.22;83.18;;;;;;;;;;5087726;28;20044;-66
2024/01/04 05:51:01;;;;;;;77.32;74.63;;;;;;;;;;5083911;28;20048;-65
2024/01/04 05:53:28;;;;;;;71.75;69.32;;;;;;;;;;5100226;28;20564;-66
2024/01/04 05:55:54;;;;;;;80.10;76.45;;;;;;;;;;5091458;28;20490;-66
2024/01/04 05:58:21;;;;;;;73.15;70.57;;;;;;;;;;5098534;28;20106;-66
2024/01/04 06:00:47;;;;;;;76.05;73.18;;;;;;;;;;5091776;28;20048;-65
2024/01/04 06:03:14;;;;;;;74.45;71.43;;;;;;;;;;5091660;28;20055;-66
2024/01/04 06:05:41;;;;;;;74.95;72.20;;;;;;;;;;5091259;28;20052;-66
2024/01/04 06:08:08;;;;;;;66.82;63.95;;;;;;;;;;5097527;28;20044;-66
2024/01/04 06:10:35;;;;;;;83.60;80.45;;;;;;;;;;5091829;28;20055;-66
2024/01/04 06:13:01;;;;;;;48.13;46.33;;;;;;;;;;5096052;28;20452;-66
2024/01/04 06:15:28;;;;;;;84.53;81.65;;;;;;;;;;5101314;28;20056;-67
2024/01/04 06:17:54;;;;;;;77.18;74.40;;;;;;;;;;5094981;28;20096;-68
2024/01/04 06:20:21;;;;;;;72.45;69.57;;;;;;;;;;5093745;28;20498;-68
2024/01/04 06:22:50;;;;;;;57.92;55.70;;;;;;;;;;5091173;28;20460;-66
2024/01/04 06:25:17;;;;;;;52.58;50.58;;;;;;;;;;5091271;28;20387;-67
2024/01/04 06:27:43;;;;;;;85.40;82.47;;;;;;;;;;5092930;28;20052;-67
2024/01/04 06:30:10;;;;;;;91.68;88.32;;;;;;;;;;5095256;28;20060;-67
2024/01/04 06:32:36;;;;;;;54.35;52.33;;;;;;;;;;5091248;28;20440;-66
2024/01/04 06:35:03;;;;;;;86.28;83.05;;;;;;;;;;5091078;28;20097;-63
2024/01/04 06:37:29;;;;;;;98.78;95.32;;;;;;;;;;5091032;28;20129;-63
2024/01/04 06:39:57;;;;;;;79.80;77.13;;;;;;;;;;5091066;28;20112;-64
2024/01/04 06:42:24;;;;;;;75.75;73.15;;;;;;;;;;5098985;28;20047;-65
2024/01/04 06:44:50;;;;;;;86.32;82.85;;;;;;;;;;5091007;28;20048;-65
2024/01/04 06:47:17;;;;;;;84.95;81.57;;;;;;;;;;5096369;28;20065;-65
2024/01/04 06:49:43;;;;;;;89.95;86.65;;;;;;;;;;5092666;28;20498;-65
2024/01/04 06:52:09;;;;;;;79.85;77.10;;;;;;;;;;5090919;28;20062;-67
2024/01/04 06:54:36;;;;;;;84.50;81.22;;;;;;;;;;5091217;28;20105;-65
2024/01/04 06:57:06;;;;;;;77.90;74.82;;;;;;;;;;5095976;28;20134;-64
2024/01/04 06:59:32;;;;;;;76.57;73.32;;;;;;;;;;5093972;28;20080;-64
2024/01/04 07:01:59;;;;;;;70.70;67.55;;;;;;;;;;5097538;28;20109;-64
2024/01/04 07:04:25;;;;;;;79.25;75.65;;;;;;;;;;5096154;28;20105;-65
2024/01/04 07:06:52;;;;;;;93.45;89.15;;;;;;;;;;5089462;28;20048;-65
2024/01/04 07:09:18;;;;;;;89.90;85.78;;;;;;;;;;5093480;28;20081;-64
2024/01/04 07:11:45;;;;;;;85.72;81.90;;;;;;;;;;5093811;28;20606;-67
2024/01/04 07:14:12;;;;;;;109.38;104.85;;;;;;;;;;5093147;28;20044;-65
2024/01/04 07:16:42;;;;;;;70.15;67.57;;;;;;;;;;5094802;28;20456;-65
2024/01/04 07:19:09;;;;;;;107.20;103.30;;;;;;;;;;5093665;28;20044;-65
2024/01/04 07:21:35;;;;;;;99.45;95.07;;;;;;;;;;5093423;28;20044;-65
2024/01/04 07:24:02;;;;;;;104.82;100.93;;;;;;;;;;5093404;28;20572;-65
2024/01/04 07:26:29;;;;;;;82.25;78.85;;;;;;;;;;5085175;28;20460;-65
2024/01/04 07:28:55;;;;;;;113.50;108.53;;;;;;;;;;5094513;28;20048;-66
2024/01/04 07:31:23;;;;;;;105.97;102.28;;;;;;;;;;5091850;28;20052;-64
2024/01/04 07:33:49;;;;;;;110.15;106.05;;;;;;;;;;5093232;28;20056;-65
2024/01/04 07:36:16;;;;;;;106.10;101.90;;;;;;;;;;5093162;28;20040;-66
2024/01/04 07:38:42;;;;;;;101.03;97.18;;;;;;;;;;5093328;28;20051;-66
2024/01/04 07:41:09;;;;;;;105.22;101.53;;;;;;;;;;5090103;28;20047;-66
2024/01/04 07:43:35;;;;;;;108.28;104.07;;;;;;;;;;5089084;28;20039;-65
2024/01/04 07:46:02;;;;;;;113.38;109.50;;;;;;;;;;5103449;28;20056;-65
2024/01/04 07:48:30;;;;;;;105.55;101.90;;;;;;;;;;5089096;28;20101;-65
2024/01/04 07:50:56;;;;;;;122.82;118.35;;;;;;;;;;5093297;28;20101;-65
2024/01/04 07:53:23;;;;;;;121.28;116.80;;;;;;;;;;5085525;28;20040;-67
2024/01/04 07:55:49;;;;;;;126.05;121.35;;;;;;;;;;5086615;28;20052;-65
2024/01/04 07:58:16;;;;;;;120.20;116.05;;;;;;;;;;5086223;28;20084;-65
2024/01/04 08:00:42;;;;;;;127.85;122.50;;;;;;;;;;5090279;28;20066;-65
2024/01/04 08:03:09;;;;;;;114.28;110.05;;;;;;;;;;5094150;28;20546;-65
2024/01/04 08:05:36;;;;;;;130.55;125.90;;;;;;;;;;5093432;28;20047;-66
2024/01/04 08:08:03;;;;;;;132.30;127.22;;;;;;;;;;5106598;28;20482;-64
2024/01/04 08:10:30;;;;;;;140.98;136.05;;;;;;;;;;5098407;28;20606;-65
2024/01/04 08:12:56;;;;;;;133.30;128.25;;;;;;;;;;5084692;28;20109;-65
2024/01/04 08:15:23;;;;;;;89.72;85.55;;;;;;;;;;5082544;28;20479;-66
2024/01/04 08:17:49;;;;;;;138.35;131.90;;;;;;;;;;5092377;28;20080;-64
2024/01/04 08:20:18;;;;;;;134.90;129.90;;;;;;;;;;5090648;28;20070;-65
2024/01/04 08:22:46;;;;;;;139.38;134.50;;;;;;;;;;5089586;28;20490;-65
2024/01/04 08:25:12;;;;;;;135.43;130.23;;;;;;;;;;5080801;28;20048;-65
2024/01/04 08:27:39;;;;;;;128.43;123.00;;;;;;;;;;5082995;28;20052;-66
2024/01/04 08:30:05;;;;;;;143.07;137.75;;;;;;;;;;5082124;28;20056;-65
2024/01/04 08:32:32;;;;;;;131.50;125.75;;;;;;;;;;5085938;28;20052;-65
2024/01/04 08:34:59;;;;;;;140.52;134.85;;;;;;;;;;5092201;28;20113;-65
2024/01/04 08:37:25;;;;;;;152.93;146.65;;;;;;;;;;5091403;28;20044;-66
2024/01/04 08:39:53;;;;;;;141.27;135.43;;;;;;;;;;5087462;28;20052;-66
2024/01/04 08:42:20;;;;;;;137.00;131.70;;;;;;;;;;5088246;28;20044;-66
2024/01/04 08:44:46;;;;;;;126.13;121.13;;;;;;;;;;5092044;28;20129;-65
2024/01/04 08:47:13;;;;;;;151.75;145.82;;;;;;;;;;5086794;28;20077;-65
2024/01/04 08:49:39;;;;;;;152.40;146.05;;;;;;;;;;5079361;28;20041;-65
2024/01/04 08:52:06;;;;;;;147.32;141.40;;;;;;;;;;5085006;28;20543;-65
2024/01/04 08:54:32;;;;;;;144.70;139.35;;;;;;;;;;5094305;28;20043;-66
2024/01/04 08:57:00;;;;;;;154.40;148.30;;;;;;;;;;5081615;28;20074;-65
2024/01/04 08:59:27;;;;;;;160.07;153.93;;;;;;;;;;5091348;28;20094;-65
2024/01/04 09:01:53;;;;;;;157.32;151.30;;;;;;;;;;5091941;28;20097;-65
2024/01/04 09:04:20;;;;;;;166.13;160.07;;;;;;;;;;5090380;28;20048;-65
2024/01/04 09:06:47;;;;;;;148.88;142.18;;;;;;;;;;5092088;28;20093;-65
2024/01/04 09:09:13;;;;;;;164.15;157.57;;;;;;;;;;5086969;28;20044;-65
2024/01/04 09:11:41;;;;;;;172.88;166.13;;;;;;;;;;5087223;28;20117;-66
2024/01/04 09:14:11;;;;;;;171.00;164.43;;;;;;;;;;5091057;28;20044;-65
2024/01/04 09:16:39;;;;;;;178.75;172.45;;;;;;;;;;5085120;28;20139;-65
2024/01/04 09:19:05;;;;;;;;;;;;;;;;;;5091509;28;20494;-66
2024/01/04 09:21:31;;;;;;;;;;;;;;;;;;5090030;28;20321;-69
2024/01/04 09:23:57;;;;;;;;;;;;;;;;;;5090446;28;20411;-65
2024/01/04 09:26:24;;;;;;;;;;;;;;;;;;5089981;28;19920;-69
2024/01/04 09:28:50;;;;;;;;;;;;;;;;;;5091528;28;19928;-67
2024/01/04 09:31:17;;;;;;;;;;;;;;;;;;5084395;28;19927;-66
2024/01/04 09:33:43;;;;;;;;;;;;;;;;;;5089690;28;19923;-66
2024/01/04 09:36:09;;;;;;;;;;;;;;;;;;5075219;28;19924;-68
2024/01/04 09:38:36;;;;;;;;;;;;;;;;;;5077360;28;19923;-66
2024/01/04 09:41:03;;;;;;;;;;;;;;;;;;5081587;28;19940;-67
2024/01/04 09:43:30;;;;;;;;;;;;;;;;;;5086122;28;19924;-67
2024/01/04 09:45:56;;;;;;;;;;;;;;;;;;5086471;28;19928;-66
2024/01/04 09:48:23;;;;;;;;;;;;;;;;;;5076798;28;19924;-69
2024/01/04 09:50:49;;;;;;;;;;;;;;;;;;5084636;28;19928;-66
2024/01/04 09:53:15;;;;;;;;;;;;;;;;;;5084449;28;20374;-66
2024/01/04 09:55:41;;;;;;;;;;;;;;;;;;5087445;28;20405;-66
2024/01/04 09:58:10;;;;;;;;;;;;;;;;;;5091369;28;19938;-66
2024/01/04 10:00:36;;;;;;;;;;;;;;;;;;5091843;28;19928;-66
2024/01/04 10:03:03;;;;;;;;;;;;;;;;;;5082068;28;19980;-66
2024/01/04 10:05:29;;;;;;;;;;;;;;;;;;5091610;28;19920;-66
2024/01/04 10:07:55;;;;;;;;;;;;;;;;;;5081829;28;20370;-66
2024/01/04 10:10:22;;;;;;;;;;;;;;;;;;5084150;28;19930;-66
2024/01/04 10:12:48;;;;;;;;;;;;;;;;;;5088711;28;19924;-65
2024/01/04 10:15:15;;;;;;;;;;;;;;;;;;5091345;28;20057;-67
2024/01/04 10:17:41;;;;;;;;;;;;;;;;;;5102867;28;19920;-65
2024/01/04 10:20:07;;;;;;;;;;;;;;;;;;5091945;28;19973;-66
2024/01/04 10:22:34;;;;;;;;;;;;;;;;;;5087073;28;19920;-67
2024/01/04 10:25:00;;;;;;;;;;;;;;;;;;5074125;28;19977;-66
2024/01/04 10:27:26;;;;;;;;;;;;;;;;;;5085257;28;19919;-66
2024/01/04 10:29:52;;;;;;;;;;;;;;;;;;5093053;28;19923;-65
2024/01/04 10:32:19;;;;;;;;;;;;;;;;;;5095584;28;20003;-66
2024/01/04 10:34:45;;;;;;;;;;;;;;;;;;5099811;28;19928;-66
2024/01/04 10:37:12;;;;;;;;;;;;;;;;;;5090624;28;22191;-66
2024/01/04 10:39:39;;;;;;;;;;;;;;;;;;5084129;28;19926;-66
2024/01/04 10:42:05;;;;;;;;;;;;;;;;;;5089325;28;19984;-67
2024/01/04 10:44:33;;;;;;;;;;;;;;;;;;5088378;28;19992;-65
2024/01/04 10:46:59;;;;;;;;;;;;;;;;;;5089692;28;19981;-66
2024/01/04 10:49:25;;;;;;;;;;;;;;;;;;5081212;28;19998;-67
2024/01/04 10:51:52;;;;;;;;;;;;;;;;;;5106432;28;19927;-68
2024/01/04 10:54:18;;;;;;;;;;;;;;;;;;5092125;28;20007;-66
2024/01/04 10:56:44;;;;;;;;;;;;;;;;;;5084799;28;19977;-66
2024/01/04 10:59:11;;;;;;;;;;;;;;;;;;5094727;28;20370;-66
2024/01/04 11:01:37;;;;;;;;;;;;;;;;;;5081428;28;20448;-65
2024/01/04 11:04:03;;;;;;;;;;;;;;;;;;5094221;28;20336;-65
2024/01/04 11:06:33;;;;;;;;;;;;;;;;;;5093586;28;20336;-67
2024/01/04 11:09:00;;;;;;;;;;;;;;;;;;5086581;28;19930;-68
2024/01/04 11:11:26;;;;;;;;;;;;;;;;;;5088055;28;19974;-66
2024/01/04 11:13:52;;;;;;;;;;;;;;;;;;5093352;28;19920;-66
2024/01/04 11:16:19;;;;;;;;;;;;;;;;;;5085712;28;19924;-67
2024/01/04 11:18:46;;;;;;;;;;;;;;;;;;5093701;28;19939;-66
2024/01/04 11:21:12;;;;;;;;;;;;;;;;;;5094183;28;19985;-67
2024/01/04 11:23:38;;;;;;;;;;;;;;;;;;5094159;28;19924;-66
2024/01/04 11:26:04;;;;;;;;;;;;;;;;;;5083263;28;19924;-67
2024/01/04 11:28:31;;;;;;;;;;;;;;;;;;5073821;28;19973;-67
2024/01/04 11:30:57;;;;;;;;;;;;;;;;;;5091832;28;20462;-66
2024/01/04 11:33:23;;;;;;;;;;;;;;;;;;5114577;28;20352;-68
2024/01/04 11:35:50;;;;;;;;;;;;;;;;;;5086589;28;19995;-67
2024/01/04 11:38:16;;;;;;;;;;;;;;;;;;5086963;28;19920;-68
2024/01/04 11:40:42;;;;;;;;;;;;;;;;;;5093082;28;19924;-67
2024/01/04 11:43:09;;;;;;;;;;;;;;;;;;5091188;28;19920;-66
2024/01/04 11:45:35;;;;;;;;;;;;;;;;;;5079762;28;19985;-66
2024/01/04 11:48:01;;;;;;;;;;;;;;;;;;5086190;28;19919;-66
2024/01/04 11:50:28;;;;;;;;;;;;;;;;;;5093840;28;20435;-66
2024/01/04 11:52:55;;;;;;;;;;;;;;;;;;5086201;28;20771;-67
2024/01/04 11:55:21;;;;;;;;;;;;;;;;;;5089675;28;20382;-66
2024/01/04 11:57:47;;;;;;;;;;;;;;;;;;5086852;28;19924;-66
2024/01/04 12:00:13;;;;;;;;;;;;;;;;;;5093776;28;19924;-66
2024/01/04 12:02:40;;;;;;;;;;;;;;;;;;5089104;28;19928;-66
2024/01/04 12:05:06;;;;;;;;;;;;;;;;;;5090488;28;19920;-66
2024/01/04 12:07:32;;;;;;;;;;;;;;;;;;5090518;28;19931;-66
2024/01/04 12:09:59;;;;;;;;;;;;;;;;;;5091811;28;19946;-65
2024/01/04 12:12:25;;;;;;;;;;;;;;;;;;5092726;28;20392;-67
2024/01/04 12:14:52;;;;;;;;;;;;;;;;;;5093386;28;20362;-66
2024/01/04 12:17:18;;;;;;;;;;;;;;;;;;5078711;28;20455;-66
2024/01/04 12:19:44;;;;;;;;;;;;;;;;;;5091401;28;20393;-66
2024/01/04 12:22:10;;;;;;;;;;;;;;;;;;5077453;28;20328;-66
2024/01/04 12:24:38;;;;;;;;;;;;;;;;;;5089688;28;19982;-66
2024/01/04 12:27:04;;;;;;;;;;;;;;;;;;5091845;28;19924;-67
2024/01/04 12:29:31;;;;;;;;;;;;;;;;;;5111589;28;19920;-66
2024/01/04 12:31:57;;;;;;;;;;;;;;;;;;5113652;28;20427;-66
2024/01/04 12:34:23;;;;;;;;;;;;;;;;;;5113316;28;20368;-67
2024/01/04 12:36:50;;;;;;;;;;;;;;;;;;5112785;28;20305;-67
2024/01/04 12:39:16;;;;;;;;;;;;;;;;;;5092718;28;20328;-67
2024/01/04 12:41:44;;;;;;;;;;;;;;;;;;5085853;28;19985;-66
2024/01/04 12:44:10;;;;;;;;;;;;;;;;;;5080792;28;20306;-66
2024/01/04 12:46:36;;;;;;;;;;;;;;;;;;5072667;28;19981;-66
2024/01/04 12:49:03;;;;;;;;;;;;;;;;;;5092425;28;19942;-66
2024/01/04 12:51:29;;;;;;;;;;;;;;;;;;5092731;28;19964;-66
2024/01/04 12:53:55;;;;;;;;;;;;;;;;;;5099296;28;19919;-67
2024/01/04 12:56:22;;;;;;;;;;;;;;;;;;5104666;28;20619;-66
2024/01/04 12:58:49;;;;;;;;;;;;;;;;;;5096306;28;19920;-66
2024/01/04 13:01:16;;;;;;;;;;;;;;;;;;5088141;28;19973;-66
2024/01/04 13:03:42;;;;;;;;;;;;;;;;;;5096268;28;19973;-66
2024/01/04 13:06:08;;;;;;;;;;;;;;;;;;5092513;28;19920;-66
2024/01/04 13:08:35;;;;;;;;;;;;;;;;;;5092155;28;19974;-66
2024/01/04 13:11:02;;;;;;;;;;;;;;;;;;5085183;28;19989;-66
2024/01/04 13:13:28;;;;;;;;;;;;;;;;;;5092159;28;20010;-66
2024/01/04 13:15:54;;;;;;;;;;;;;;;;;;5092468;28;19980;-66
2024/01/04 13:18:21;;;;;;;;;;;;;;;;;;5088972;28;19923;-65
2024/01/04 13:20:47;;;;;;;;;;;;;;;;;;5076165;28;19973;-66
2024/01/04 13:23:13;;;;;;;;;;;;;;;;;;5089337;28;19965;-66
2024/01/04 13:25:40;;;;;;;;;;;;;;;;;;5098456;28;19923;-66
2024/01/04 13:28:06;;;;;;;;;;;;;;;;;;5103279;28;19920;-66
2024/01/04 13:30:32;;;;;;;;;;;;;;;;;;5103682;28;19981;-66
2024/01/04 13:32:59;;;;;;;;;;;;;;;;;;5104139;28;19920;-66
2024/01/04 13:35:25;;;;;;;;;;;;;;;;;;5093339;28;19981;-67
2024/01/04 13:37:52;;;;;;;;;;;;;;;;;;5087984;28;20275;-66
2024/01/04 13:40:18;;;;;;;;;;;;;;;;;;5085166;28;19924;-66
2024/01/04 13:42:45;;;;;;;;;;;;;;;;;;5091991;28;19981;-66
2024/01/04 13:45:11;;;;;;;;;;;;;;;;;;5092135;28;19943;-66
2024/01/04 13:47:39;;;;;;;;;;;;;;;;;;5092111;28;19920;-66
2024/01/04 13:50:05;;;;;;;;;;;;;;;;;;5095690;28;19924;-66
2024/01/04 13:52:31;;;;;;;;;;;;;;;;;;5103152;28;19920;-66
2024/01/04 13:54:58;;;;;;;;;;;;;;;;;;5087443;28;19928;-66
2024/01/04 13:57:24;;;;;;;;;;;;;;;;;;5093171;28;20486;-67
2024/01/04 13:59:50;;;;;;;;;;;;;;;;;;5093821;28;19927;-66
2024/01/04 14:02:17;;;;;;;;;;;;;;;;;;5103677;28;19921;-66
2024/01/04 14:04:43;;;;;;;;;;;;;;;;;;5099264;28;20053;-66
2024/01/04 14:07:10;;;;;;;;;;;;;;;;;;5096600;28;19928;-66
2024/01/04 14:09:36;;;;;;;;;;;;;;;;;;5096194;28;20298;-66
2024/01/04 14:12:03;;;;;;;;;;;;;;;;;;5101123;28;19980;-66
2024/01/04 14:14:29;;;;;;;;;;;;;;;;;;5099793;28;19920;-67
2024/01/04 14:16:55;;;;;;;;;;;;;;;;;;5085106;28;19927;-66
2024/01/04 14:19:21;;;;;;;;;;;;;;;;;;5084393;28;20404;-66
2024/01/04 14:21:48;;;;;;;;;;;;;;;;;;5088724;28;19924;-66
2024/01/04 14:24:14;;;;;;;;;;;;;;;;;;5095845;28;19920;-66
2024/01/04 14:26:40;;;;;;;;;;;;;;;;;;5083027;28;19978;-68
2024/01/04 14:29:06;;;;;;;;;;;;;;;;;;5085464;28;19966;-67
2024/01/04 14:31:33;;;;;;;;;;;;;;;;;;5087772;28;19965;-68
2024/01/04 14:33:59;;;;;;;;;;;;;;;;;;5093662;28;19966;-67
2024/01/04 14:36:25;;;;;;;;;;;;;;;;;;5090234;28;19959;-68
2024/01/04 14:38:51;;;;;;;;;;;;;;;;;;5097158;28;19923;-68
2024/01/04 14:41:18;;;;;;;;;;;;;;;;;;5096184;28;19973;-68
2024/01/04 14:43:44;;;;;;;;;;;;;;;;;;5083752;28;19928;-68
2024/01/04 14:46:10;;;;;;;;;;;;;;;;;;5094557;28;19943;-71
2024/01/04 14:48:36;;;;;;;;;;;;;;;;;;5089075;28;19919;-69
2024/01/04 14:51:03;;;;;;;;;;;;;;;;;;5093109;28;19920;-70
2024/01/04 14:53:29;;;;;;;;;;;;;;;;;;5087076;28;19966;-69
2024/01/04 14:55:55;;;;;;;;;;;;;;;;;;5086831;28;20022;-73
2024/01/04 14:58:22;;;;;;;;;;;;;;;;;;5082355;28;19928;-70